Time;durP1;ratioP1;P1;durP2;ratioP2;P2;SDS_P1;SDS_P2;PMS_P1;PMS_P2;Temp;Humidity;BMP_temperature;BMP_pressure;BME280_temperature;BME280_humidity;BME280_pressure;Samples;Min_cycle;Max_cycle;Signal;HPM_P1;HPM_P2
2022/11/19 00:00:46;;;;;;;1.70;1.60;;;;;;;;;;5081602;28;20172;-78
2022/11/19 00:03:12;;;;;;;1.30;1.20;;;;;;;;;;5082490;28;20202;-78
2022/11/19 00:05:38;;;;;;;1.13;1.03;;;;;;;;;;5092150;28;20466;-78
2022/11/19 00:08:03;;;;;;;2.47;1.10;;;;;;;;;;5096053;27;20209;-78
2022/11/19 00:10:28;;;;;;;1.57;1.47;;;;;;;;;;5085109;28;20218;-78
2022/11/19 00:12:53;;;;;;;0.93;0.93;;;;;;;;;;5091579;28;20212;-79
2022/11/19 00:15:19;;;;;;;0.80;0.80;;;;;;;;;;5090101;28;20239;-78
2022/11/19 00:17:44;;;;;;;1.97;1.20;;;;;;;;;;5112151;27;20227;-79
2022/11/19 00:20:09;;;;;;;1.43;1.33;;;;;;;;;;5083354;28;20203;-79
2022/11/19 00:22:35;;;;;;;1.03;1.03;;;;;;;;;;5091686;28;20173;-78
2022/11/19 00:25:00;;;;;;;1.73;1.33;;;;;;;;;;5091980;28;20188;-78
2022/11/19 00:27:25;;;;;;;0.97;0.87;;;;;;;;;;5088981;28;20188;-78
2022/11/19 00:29:50;;;;;;;1.07;1.00;;;;;;;;;;5089813;28;20211;-78
2022/11/19 00:32:16;;;;;;;1.30;1.20;;;;;;;;;;5086821;28;20243;-78
2022/11/19 00:34:41;;;;;;;0.70;0.70;;;;;;;;;;5086390;28;20215;-78
2022/11/19 00:37:06;;;;;;;2.47;1.17;;;;;;;;;;5085710;28;20210;-79
2022/11/19 00:39:31;;;;;;;3.00;1.00;;;;;;;;;;5086467;28;20191;-78
2022/11/19 00:41:56;;;;;;;1.50;1.10;;;;;;;;;;5083939;28;20180;-79
2022/11/19 00:44:22;;;;;;;1.10;1.00;;;;;;;;;;5087975;28;20219;-78
2022/11/19 00:46:47;;;;;;;1.30;1.07;;;;;;;;;;5086239;28;20185;-79
2022/11/19 00:49:12;;;;;;;1.07;1.07;;;;;;;;;;5084611;28;20192;-79
2022/11/19 00:51:37;;;;;;;1.83;0.90;;;;;;;;;;5074161;28;20505;-78
2022/11/19 00:54:02;;;;;;;2.20;2.00;;;;;;;;;;5087243;28;20179;-79
2022/11/19 00:56:28;;;;;;;1.67;1.50;;;;;;;;;;5086735;28;20308;-79
2022/11/19 00:58:54;;;;;;;1.13;1.03;;;;;;;;;;5082220;28;20171;-78
2022/11/19 01:01:21;;;;;;;1.40;1.30;;;;;;;;;;5083668;28;20215;-78
2022/11/19 01:03:46;;;;;;;1.40;1.30;;;;;;;;;;5087288;28;20174;-78
2022/11/19 01:06:12;;;;;;;1.97;1.30;;;;;;;;;;5089109;28;20217;-78
2022/11/19 01:08:38;;;;;;;1.40;1.30;;;;;;;;;;5091262;28;20186;-78
2022/11/19 01:11:04;;;;;;;1.60;1.37;;;;;;;;;;5079922;28;20182;-79
2022/11/19 01:13:36;;;;;;;1.97;1.20;;;;;;;;;;5104291;27;20180;-79
2022/11/19 01:16:06;;;;;;;1.53;1.43;;;;;;;;;;5080263;28;20218;-79
2022/11/19 01:18:32;;;;;;;1.20;1.10;;;;;;;;;;5089040;28;20182;-79
2022/11/19 01:20:57;;;;;;;1.50;1.30;;;;;;;;;;5084182;28;20178;-78
2022/11/19 01:23:22;;;;;;;1.10;1.00;;;;;;;;;;5078981;28;20181;-78
2022/11/19 01:25:48;;;;;;;1.30;1.20;;;;;;;;;;5094802;28;20202;-78
2022/11/19 01:28:13;;;;;;;1.30;0.93;;;;;;;;;;5086991;28;20194;-78
2022/11/19 01:30:39;;;;;;;0.90;0.90;;;;;;;;;;5088241;28;20188;-79
2022/11/19 01:33:05;;;;;;;1.07;1.07;;;;;;;;;;5084268;28;20190;-78
2022/11/19 01:35:30;;;;;;;0.90;0.90;;;;;;;;;;5094155;28;20191;-78
2022/11/19 01:37:56;;;;;;;1.30;1.20;;;;;;;;;;5086444;28;20177;-78
2022/11/19 01:40:21;;;;;;;1.87;1.40;;;;;;;;;;5105185;28;20233;-78
2022/11/19 01:42:49;;;;;;;2.03;1.50;;;;;;;;;;5082717;28;20209;-78
2022/11/19 01:45:17;;;;;;;3.90;1.77;;;;;;;;;;5087770;28;20177;-78
2022/11/19 01:47:42;;;;;;;1.87;1.67;;;;;;;;;;5089253;28;20181;-78
2022/11/19 01:50:08;;;;;;;1.93;1.80;;;;;;;;;;5079928;28;20195;-78
2022/11/19 01:52:33;;;;;;;2.03;1.83;;;;;;;;;;5085045;28;20181;-78
2022/11/19 01:54:58;;;;;;;2.20;2.00;;;;;;;;;;5079078;28;20188;-78
2022/11/19 01:57:24;;;;;;;3.27;2.23;;;;;;;;;;5078270;28;20177;-78
2022/11/19 01:59:50;;;;;;;2.87;2.57;;;;;;;;;;5082534;28;20190;-78
2022/11/19 02:02:18;;;;;;;2.80;2.60;;;;;;;;;;5086188;28;20179;-78
2022/11/19 02:04:44;;;;;;;4.40;2.57;;;;;;;;;;5083372;28;20188;-78
2022/11/19 02:07:10;;;;;;;6.40;3.50;;;;;;;;;;5092601;28;20177;-79
2022/11/19 02:09:36;;;;;;;4.93;3.50;;;;;;;;;;5088267;28;20212;-78
2022/11/19 02:12:20;;;;;;;3.17;2.73;;;;;;;;;;5086926;28;20183;-78
2022/11/19 02:15:04;;;;;;;4.07;3.30;;;;;;;;;;5088701;28;20179;-78
2022/11/19 02:17:29;;;;;;;3.27;2.97;;;;;;;;;;5110871;27;20187;-78
2022/11/19 02:19:54;;;;;;;4.03;3.03;;;;;;;;;;5093310;28;20223;-79
2022/11/19 02:22:20;;;;;;;3.13;2.50;;;;;;;;;;5094815;28;20193;-78
2022/11/19 02:24:45;;;;;;;3.77;2.67;;;;;;;;;;5089323;28;20228;-78
2022/11/19 02:27:30;;;;;;;3.97;3.50;;;;;;;;;;5101169;28;20241;-79
2022/11/19 02:30:01;;;;;;;2.97;2.43;;;;;;;;;;5084412;28;20183;-79
2022/11/19 02:32:30;;;;;;;3.60;2.63;;;;;;;;;;5089453;28;20187;-78
2022/11/19 02:35:07;;;;;;;3.30;2.60;;;;;;;;;;5091858;28;20204;-78
2022/11/19 02:37:39;;;;;;;6.83;2.77;;;;;;;;;;5086988;28;20365;-78
2022/11/19 02:40:05;;;;;;;5.73;3.53;;;;;;;;;;5089170;28;20235;-78
2022/11/19 02:42:33;;;;;;;5.57;3.30;;;;;;;;;;5085693;28;20182;-78
2022/11/19 02:45:05;;;;;;;3.40;3.10;;;;;;;;;;5089432;28;20192;-78
2022/11/19 02:47:48;;;;;;;4.87;3.30;;;;;;;;;;5093748;28;20165;-78
2022/11/19 02:50:18;;;;;;;4.77;3.17;;;;;;;;;;5090787;28;20206;-78
2022/11/19 02:52:44;;;;;;;3.90;2.50;;;;;;;;;;5092402;28;20234;-79
2022/11/19 02:55:17;;;;;;;3.10;2.80;;;;;;;;;;5089264;28;20222;-79
2022/11/19 02:57:43;;;;;;;3.47;2.97;;;;;;;;;;5085067;28;20169;-78
2022/11/19 03:05:59;;;;;;;2.90;2.70;;;;;;;;;;5069833;28;20199;-78
2022/11/19 03:08:25;;;;;;;2.80;2.57;;;;;;;;;;5086180;28;20218;-78
2022/11/19 03:10:53;;;;;;;3.30;2.37;;;;;;;;;;5080692;28;20216;-78
2022/11/19 03:19:05;;;;;;;2.50;1.80;;;;;;;;;;5084267;28;20205;-78
2022/11/19 03:21:33;;;;;;;2.73;1.80;;;;;;;;;;5099421;28;20206;-79
2022/11/19 03:24:00;;;;;;;2.67;1.70;;;;;;;;;;5090278;28;20240;-78
2022/11/19 03:26:30;;;;;;;1.70;1.50;;;;;;;;;;5088829;28;20181;-79
2022/11/19 03:28:58;;;;;;;2.23;1.80;;;;;;;;;;5084232;28;20247;-78
2022/11/19 03:31:24;;;;;;;1.80;1.70;;;;;;;;;;5089497;28;20206;-78
2022/11/19 03:33:51;;;;;;;2.30;2.10;;;;;;;;;;5084912;28;20308;-79
2022/11/19 03:36:19;;;;;;;2.03;1.87;;;;;;;;;;5091580;28;20202;-79
2022/11/19 03:38:46;;;;;;;2.30;2.10;;;;;;;;;;5085964;28;20208;-78
2022/11/19 03:41:13;;;;;;;3.03;2.40;;;;;;;;;;5096330;28;20178;-78
2022/11/19 03:43:40;;;;;;;3.27;2.50;;;;;;;;;;5086101;28;20286;-78
2022/11/19 03:46:10;;;;;;;2.97;2.77;;;;;;;;;;5105125;27;20192;-78
2022/11/19 03:48:35;;;;;;;2.80;2.60;;;;;;;;;;5088031;28;20181;-79
2022/11/19 03:51:11;;;;;;;3.77;2.73;;;;;;;;;;5095186;28;20260;-79
2022/11/19 03:53:36;;;;;;;3.43;2.87;;;;;;;;;;5092135;28;20238;-79
2022/11/19 03:56:02;;;;;;;3.00;2.70;;;;;;;;;;5090640;28;20253;-78
2022/11/19 03:58:28;;;;;;;3.23;2.93;;;;;;;;;;5086247;28;20207;-79
2022/11/19 04:00:53;;;;;;;2.80;2.50;;;;;;;;;;5086949;28;20185;-78
2022/11/19 04:03:19;;;;;;;3.17;2.80;;;;;;;;;;5086235;28;20187;-78
2022/11/19 04:05:44;;;;;;;3.53;2.40;;;;;;;;;;5090876;28;20204;-78
2022/11/19 04:08:09;;;;;;;3.50;2.60;;;;;;;;;;5102085;28;20184;-78
2022/11/19 04:10:35;;;;;;;5.00;2.50;;;;;;;;;;5084715;28;20207;-78
2022/11/19 04:13:00;;;;;;;2.70;2.50;;;;;;;;;;5085016;28;20184;-78
2022/11/19 04:15:25;;;;;;;2.70;2.50;;;;;;;;;;5088213;28;20202;-78
2022/11/19 04:17:50;;;;;;;1.87;1.77;;;;;;;;;;5083377;28;20183;-78
2022/11/19 04:20:15;;;;;;;1.87;1.77;;;;;;;;;;5087329;28;20193;-79
2022/11/19 04:22:41;;;;;;;2.10;1.90;;;;;;;;;;5087367;28;20184;-79
2022/11/19 04:25:06;;;;;;;2.13;1.93;;;;;;;;;;5087235;28;20180;-79
2022/11/19 04:27:32;;;;;;;1.50;1.40;;;;;;;;;;5084852;28;20230;-79
2022/11/19 04:29:57;;;;;;;1.33;1.23;;;;;;;;;;5087060;28;20483;-78
2022/11/19 04:32:22;;;;;;;1.07;1.03;;;;;;;;;;5090154;28;20186;-78
2022/11/19 04:34:48;;;;;;;1.30;1.20;;;;;;;;;;5081593;28;20189;-78
2022/11/19 04:37:13;;;;;;;0.90;0.90;;;;;;;;;;5091580;28;20200;-79
2022/11/19 04:39:38;;;;;;;1.10;1.00;;;;;;;;;;5087878;28;20246;-79
2022/11/19 04:42:04;;;;;;;0.93;0.93;;;;;;;;;;5083583;28;20183;-80
2022/11/19 04:44:29;;;;;;;0.93;0.93;;;;;;;;;;5089198;28;20207;-78
2022/11/19 04:46:54;;;;;;;1.23;1.13;;;;;;;;;;5089707;28;20183;-78
2022/11/19 04:49:20;;;;;;;1.10;1.10;;;;;;;;;;5081843;28;20179;-78
2022/11/19 04:51:45;;;;;;;0.70;0.70;;;;;;;;;;5080929;28;20176;-79
2022/11/19 04:54:11;;;;;;;0.90;0.90;;;;;;;;;;5085256;28;20198;-79
2022/11/19 04:56:37;;;;;;;0.90;0.90;;;;;;;;;;5078283;28;20224;-79
2022/11/19 04:59:02;;;;;;;1.00;1.00;;;;;;;;;;5085219;28;20174;-78
2022/11/19 05:01:27;;;;;;;1.20;0.70;;;;;;;;;;5086654;28;20190;-79
2022/11/19 05:03:52;;;;;;;0.70;0.70;;;;;;;;;;5076685;28;20323;-79
2022/11/19 05:06:18;;;;;;;1.40;1.30;;;;;;;;;;5088061;28;20191;-79
2022/11/19 05:08:43;;;;;;;1.43;1.33;;;;;;;;;;5086231;28;20205;-78
2022/11/19 05:11:08;;;;;;;2.13;2.00;;;;;;;;;;5089256;28;20177;-79
2022/11/19 05:13:33;;;;;;;2.00;1.90;;;;;;;;;;5080265;28;20243;-79
2022/11/19 05:15:59;;;;;;;2.17;1.97;;;;;;;;;;5090588;28;20199;-79
2022/11/19 05:18:24;;;;;;;2.40;2.20;;;;;;;;;;5078675;28;20186;-78
2022/11/19 05:20:49;;;;;;;2.23;2.03;;;;;;;;;;5090537;28;20178;-78
2022/11/19 05:23:14;;;;;;;1.90;1.80;;;;;;;;;;5087087;28;20179;-78
2022/11/19 05:25:39;;;;;;;2.43;2.23;;;;;;;;;;5083042;28;20272;-78
2022/11/19 05:28:05;;;;;;;2.77;2.47;;;;;;;;;;5080328;28;20177;-79
2022/11/19 05:30:30;;;;;;;2.87;2.50;;;;;;;;;;5086310;28;20188;-79
2022/11/19 05:32:55;;;;;;;4.30;3.90;;;;;;;;;;5090274;28;20193;-79
2022/11/19 05:35:21;;;;;;;6.07;4.97;;;;;;;;;;5086761;28;20193;-78
2022/11/19 05:37:49;;;;;;;3.60;3.30;;;;;;;;;;5082911;28;20176;-79
2022/11/19 05:40:15;;;;;;;2.43;2.23;;;;;;;;;;5105171;28;20205;-78
2022/11/19 05:42:40;;;;;;;3.07;2.80;;;;;;;;;;5075864;28;20230;-79
2022/11/19 05:45:05;;;;;;;2.30;2.10;;;;;;;;;;5083202;28;20172;-78
2022/11/19 05:47:31;;;;;;;6.80;3.00;;;;;;;;;;5082272;28;20171;-79
2022/11/19 05:49:56;;;;;;;3.17;2.63;;;;;;;;;;5082280;28;20207;-79
2022/11/19 05:52:22;;;;;;;4.33;3.27;;;;;;;;;;5082792;28;20176;-79
2022/11/19 05:54:47;;;;;;;2.97;2.77;;;;;;;;;;5078917;28;20183;-79
2022/11/19 05:57:12;;;;;;;3.53;3.23;;;;;;;;;;5089068;28;20204;-78
2022/11/19 05:59:37;;;;;;;4.00;2.90;;;;;;;;;;5081245;28;20229;-78
2022/11/19 06:02:03;;;;;;;2.90;2.70;;;;;;;;;;5087367;28;20210;-78
2022/11/19 06:04:28;;;;;;;3.30;3.00;;;;;;;;;;5104061;28;20190;-78
2022/11/19 06:06:53;;;;;;;3.37;3.07;;;;;;;;;;5090542;28;20177;-78
2022/11/19 06:09:18;;;;;;;3.17;2.60;;;;;;;;;;5089075;28;20226;-79
2022/11/19 06:11:46;;;;;;;3.73;3.10;;;;;;;;;;5078024;28;20213;-78
2022/11/19 06:14:12;;;;;;;4.10;2.60;;;;;;;;;;5085512;28;20180;-78
2022/11/19 06:16:38;;;;;;;3.67;3.23;;;;;;;;;;5083196;28;20214;-78
2022/11/19 06:19:03;;;;;;;3.07;2.73;;;;;;;;;;5084630;28;20190;-78
2022/11/19 06:21:28;;;;;;;3.47;2.60;;;;;;;;;;5088475;28;20229;-78
2022/11/19 06:23:53;;;;;;;2.67;2.47;;;;;;;;;;5090919;28;20172;-78
2022/11/19 06:26:26;;;;;;;2.53;2.33;;;;;;;;;;5085149;28;20183;-79
2022/11/19 06:28:51;;;;;;;2.80;2.60;;;;;;;;;;5088850;28;20285;-79
2022/11/19 06:31:17;;;;;;;3.80;2.93;;;;;;;;;;5084051;28;20185;-79
2022/11/19 06:33:42;;;;;;;3.47;2.50;;;;;;;;;;5076441;28;20201;-78
2022/11/19 06:36:07;;;;;;;2.47;2.27;;;;;;;;;;5099241;28;20214;-78
2022/11/19 06:38:32;;;;;;;3.23;2.40;;;;;;;;;;5077472;28;20183;-78
2022/11/19 06:40:58;;;;;;;3.70;2.57;;;;;;;;;;5083022;28;20186;-78
2022/11/19 06:43:23;;;;;;;16.23;14.53;;;;;;;;;;5100770;28;20387;-78
2022/11/19 06:45:48;;;;;;;12.67;9.60;;;;;;;;;;5078545;28;20182;-78
2022/11/19 06:48:13;;;;;;;2.73;2.53;;;;;;;;;;5084039;28;20211;-79
2022/11/19 06:50:38;;;;;;;6.37;5.77;;;;;;;;;;5082911;28;20187;-79
2022/11/19 06:53:04;;;;;;;5.33;4.53;;;;;;;;;;5092571;28;20216;-78
2022/11/19 06:55:29;;;;;;;8.90;8.00;;;;;;;;;;5074226;28;20312;-78
2022/11/19 06:57:55;;;;;;;4.90;4.43;;;;;;;;;;5080626;28;20182;-79
2022/11/19 07:00:20;;;;;;;3.53;3.23;;;;;;;;;;5085546;28;20207;-79
2022/11/19 07:02:46;;;;;;;6.13;4.07;;;;;;;;;;5096756;28;20179;-79
2022/11/19 07:05:12;;;;;;;3.93;3.17;;;;;;;;;;5080475;28;20186;-78
2022/11/19 07:07:37;;;;;;;3.73;3.33;;;;;;;;;;5077747;28;20179;-78
2022/11/19 07:10:02;;;;;;;4.40;3.63;;;;;;;;;;5101784;27;20173;-78
2022/11/19 07:12:28;;;;;;;4.53;4.00;;;;;;;;;;5086430;28;20185;-79
2022/11/19 07:14:53;;;;;;;2.67;2.47;;;;;;;;;;5087912;28;20179;-79
2022/11/19 07:17:18;;;;;;;3.83;3.27;;;;;;;;;;5089482;28;20212;-79
2022/11/19 07:19:43;;;;;;;3.03;2.83;;;;;;;;;;5105693;27;20199;-80
2022/11/19 07:22:09;;;;;;;4.53;3.40;;;;;;;;;;5084717;28;20178;-80
2022/11/19 07:24:34;;;;;;;5.47;4.60;;;;;;;;;;5092422;28;20176;-79
2022/11/19 07:26:59;;;;;;;4.27;3.87;;;;;;;;;;5084140;28;20179;-79
2022/11/19 07:29:25;;;;;;;3.90;3.27;;;;;;;;;;5090410;28;20282;-79
2022/11/19 07:31:52;;;;;;;3.63;2.67;;;;;;;;;;5089704;28;20196;-79
2022/11/19 07:34:17;;;;;;;2.87;2.67;;;;;;;;;;5087942;28;20178;-79
2022/11/19 07:36:43;;;;;;;6.50;5.50;;;;;;;;;;5109080;28;20197;-80
2022/11/19 07:39:08;;;;;;;4.03;3.63;;;;;;;;;;5084350;28;20264;-79
2022/11/19 07:44:17;;;;;;;5.30;3.80;;;;;;;;;;5086256;28;20235;-79
2022/11/19 07:46:43;;;;;;;6.20;4.30;;;;;;;;;;5086521;28;20210;-79
2022/11/19 07:49:08;;;;;;;5.67;4.83;;;;;;;;;;5091615;28;20184;-79
2022/11/19 07:51:33;;;;;;;8.47;5.13;;;;;;;;;;5087938;28;20173;-79
2022/11/19 07:53:58;;;;;;;9.93;6.63;;;;;;;;;;5086425;28;20188;-79
2022/11/19 07:56:24;;;;;;;7.27;6.67;;;;;;;;;;5089775;28;20227;-79
2022/11/19 07:58:49;;;;;;;5.97;5.40;;;;;;;;;;5083337;28;20188;-80
2022/11/19 08:01:17;;;;;;;5.23;4.40;;;;;;;;;;5084030;28;20233;-80
2022/11/19 08:03:44;;;;;;;4.70;4.30;;;;;;;;;;5083931;28;20257;-79
2022/11/19 08:06:10;;;;;;;5.30;4.03;;;;;;;;;;5086325;28;20182;-79
2022/11/19 08:08:35;;;;;;;4.90;4.20;;;;;;;;;;5077668;28;20232;-79
2022/11/19 08:11:04;;;;;;;4.10;3.80;;;;;;;;;;5087216;28;20251;-79
2022/11/19 08:13:29;;;;;;;6.10;4.03;;;;;;;;;;5090952;28;20193;-79
2022/11/19 08:15:58;;;;;;;7.50;6.47;;;;;;;;;;5085358;28;20203;-79
2022/11/19 08:18:24;;;;;;;8.73;7.03;;;;;;;;;;5085237;28;20228;-79
2022/11/19 08:20:49;;;;;;;8.27;6.53;;;;;;;;;;5083317;28;20177;-79
2022/11/19 08:23:14;;;;;;;8.43;7.53;;;;;;;;;;5075973;28;20178;-79
2022/11/19 08:25:41;;;;;;;9.10;7.17;;;;;;;;;;5090526;28;20172;-79
2022/11/19 08:28:06;;;;;;;14.40;9.93;;;;;;;;;;5094206;28;20176;-79
2022/11/19 08:30:32;;;;;;;11.93;8.03;;;;;;;;;;5085575;28;20183;-79
2022/11/19 08:32:57;;;;;;;7.50;6.20;;;;;;;;;;5085374;28;20185;-79
2022/11/19 08:35:23;;;;;;;9.53;6.13;;;;;;;;;;5079015;28;20187;-80
2022/11/19 08:37:48;;;;;;;11.73;7.57;;;;;;;;;;5077052;28;20196;-79
2022/11/19 08:40:14;;;;;;;11.50;8.03;;;;;;;;;;5083089;28;20349;-79
2022/11/19 08:45:25;;;;;;;10.13;6.57;;;;;;;;;;5087113;28;20185;-79
2022/11/19 08:47:50;;;;;;;5.97;5.10;;;;;;;;;;5090070;28;20170;-79
2022/11/19 08:50:16;;;;;;;5.10;3.83;;;;;;;;;;5085572;28;20198;-79
2022/11/19 08:52:41;;;;;;;7.53;4.93;;;;;;;;;;5096774;28;20182;-80
2022/11/19 08:55:07;;;;;;;3.70;3.40;;;;;;;;;;5089968;28;20225;-79
2022/11/19 08:57:32;;;;;;;4.33;3.93;;;;;;;;;;5087766;28;20203;-79
2022/11/19 08:59:57;;;;;;;5.33;3.80;;;;;;;;;;5087852;28;20200;-79
2022/11/19 09:02:22;;;;;;;7.10;3.50;;;;;;;;;;5083026;28;20202;-79
2022/11/19 09:04:51;;;;;;;2.63;2.33;;;;;;;;;;5089952;28;20177;-79
2022/11/19 09:07:16;;;;;;;1.87;1.70;;;;;;;;;;5087324;28;20189;-79
2022/11/19 09:09:42;;;;;;;4.47;2.70;;;;;;;;;;5087097;28;20178;-79
2022/11/19 09:12:07;;;;;;;3.10;2.90;;;;;;;;;;5087307;28;20189;-79
2022/11/19 09:14:32;;;;;;;3.90;3.43;;;;;;;;;;5082053;28;20196;-79
2022/11/19 09:16:58;;;;;;;3.37;2.87;;;;;;;;;;5082180;28;20204;-79
2022/11/19 09:19:23;;;;;;;3.67;2.50;;;;;;;;;;5083786;28;20201;-79
2022/11/19 09:21:48;;;;;;;3.80;3.43;;;;;;;;;;5079464;28;20180;-79
2022/11/19 09:24:13;;;;;;;3.70;3.20;;;;;;;;;;5088465;28;20185;-79
2022/11/19 09:26:39;;;;;;;3.90;3.07;;;;;;;;;;5087067;28;20178;-79
2022/11/19 09:29:04;;;;;;;3.73;3.20;;;;;;;;;;5080320;28;20198;-79
2022/11/19 09:31:29;;;;;;;5.87;3.70;;;;;;;;;;5084870;28;20179;-79
2022/11/19 09:33:54;;;;;;;5.43;3.27;;;;;;;;;;5091095;28;20175;-79
2022/11/19 09:36:20;;;;;;;3.47;3.17;;;;;;;;;;5087696;28;20312;-79
2022/11/19 09:38:46;;;;;;;4.23;2.90;;;;;;;;;;5087613;28;20597;-79
2022/11/19 09:41:11;;;;;;;3.40;3.10;;;;;;;;;;5083668;28;20279;-79
2022/11/19 09:43:48;;;;;;;4.93;3.63;;;;;;;;;;5083671;28;20176;-79
2022/11/19 09:46:23;;;;;;;4.20;2.90;;;;;;;;;;5096767;27;20241;-79
2022/11/19 09:48:49;;;;;;;2.63;2.43;;;;;;;;;;5093604;28;20182;-79
2022/11/19 09:51:16;;;;;;;3.33;2.80;;;;;;;;;;5087514;28;20234;-79
2022/11/19 09:53:41;;;;;;;5.10;3.80;;;;;;;;;;5091982;28;20214;-79
2022/11/19 09:56:06;;;;;;;5.73;4.40;;;;;;;;;;5078627;28;20314;-79
2022/11/19 09:58:33;;;;;;;6.03;4.37;;;;;;;;;;5099850;28;20200;-79
2022/11/19 10:00:59;;;;;;;3.83;3.50;;;;;;;;;;5077058;28;20178;-79
2022/11/19 10:03:24;;;;;;;4.60;3.03;;;;;;;;;;5092982;28;20177;-79
2022/11/19 10:05:50;;;;;;;3.10;2.80;;;;;;;;;;5087648;28;20274;-79
2022/11/19 10:08:15;;;;;;;5.27;2.13;;;;;;;;;;5096294;28;20266;-79
2022/11/19 10:10:45;;;;;;;4.57;3.27;;;;;;;;;;5094131;28;20183;-79
2022/11/19 10:13:13;;;;;;;4.47;3.40;;;;;;;;;;5085146;28;20262;-79
2022/11/19 10:15:41;;;;;;;13.90;8.77;;;;;;;;;;5087136;28;20201;-79
2022/11/19 10:18:25;;;;;;;20.00;9.57;;;;;;;;;;5077215;28;20255;-80
2022/11/19 10:20:53;;;;;;;13.00;7.83;;;;;;;;;;5079308;28;20259;-79
2022/11/19 10:23:21;;;;;;;8.87;5.27;;;;;;;;;;5084196;28;20174;-79
2022/11/19 10:25:47;;;;;;;5.10;3.53;;;;;;;;;;5090058;28;20213;-79
2022/11/19 10:28:14;;;;;;;4.23;2.57;;;;;;;;;;5087094;28;20183;-79
2022/11/19 10:30:41;;;;;;;5.47;3.40;;;;;;;;;;5088686;28;20175;-79
2022/11/19 10:33:26;;;;;;;12.07;5.87;;;;;;;;;;5079726;28;20200;-79
2022/11/19 10:35:54;;;;;;;3.30;3.00;;;;;;;;;;5102691;28;20222;-79
2022/11/19 10:38:28;;;;;;;6.80;3.87;;;;;;;;;;5083529;28;20179;-79
2022/11/19 10:41:12;;;;;;;3.03;2.73;;;;;;;;;;5082053;28;20207;-79
2022/11/19 10:43:51;;;;;;;4.17;2.60;;;;;;;;;;5087086;28;20270;-79
2022/11/19 10:46:20;;;;;;;4.40;2.30;;;;;;;;;;5081260;28;20193;-79
2022/11/19 10:48:48;;;;;;;3.23;2.93;;;;;;;;;;5086402;28;20186;-79
2022/11/19 10:51:21;;;;;;;3.17;2.70;;;;;;;;;;5092484;28;20186;-79
2022/11/19 10:53:46;;;;;;;5.83;3.50;;;;;;;;;;5087398;28;20170;-79
2022/11/19 10:56:14;;;;;;;3.73;3.20;;;;;;;;;;5085524;28;20647;-80
2022/11/19 10:58:59;;;;;;;4.00;2.87;;;;;;;;;;5084543;28;20175;-80
2022/11/19 11:01:30;;;;;;;2.60;2.40;;;;;;;;;;5091662;28;20273;-79
2022/11/19 11:04:14;;;;;;;3.93;2.57;;;;;;;;;;5088548;28;20184;-79
2022/11/19 11:07:02;;;;;;;3.50;3.20;;;;;;;;;;5087445;28;20189;-79
2022/11/19 11:09:28;;;;;;;4.97;3.90;;;;;;;;;;5090053;28;20177;-80
2022/11/19 11:14:53;;;;;;;2.90;2.70;;;;;;;;;;5085577;28;20247;-80
2022/11/19 11:17:29;;;;;;;3.80;2.90;;;;;;;;;;5090565;28;20242;-79
2022/11/19 11:19:59;;;;;;;5.27;3.10;;;;;;;;;;5108790;27;20202;-79
2022/11/19 11:22:24;;;;;;;2.83;2.63;;;;;;;;;;5086333;28;20220;-79
2022/11/19 11:24:50;;;;;;;2.63;2.33;;;;;;;;;;5086146;28;20204;-79
2022/11/19 11:27:32;;;;;;;3.83;2.67;;;;;;;;;;5087978;28;20193;-79
2022/11/19 11:30:13;;;;;;;3.77;3.40;;;;;;;;;;5079666;28;20179;-79
2022/11/19 11:32:39;;;;;;;3.00;2.63;;;;;;;;;;5084397;28;20179;-79
2022/11/19 11:35:05;;;;;;;4.33;2.80;;;;;;;;;;5089120;28;20204;-79
2022/11/19 11:37:30;;;;;;;2.77;2.30;;;;;;;;;;5089341;28;20197;-80
2022/11/19 11:39:56;;;;;;;3.43;2.50;;;;;;;;;;5081621;28;20183;-79
2022/11/19 11:42:27;;;;;;;4.03;3.27;;;;;;;;;;5088770;28;20182;-79
2022/11/19 11:44:53;;;;;;;2.40;2.20;;;;;;;;;;5085959;28;20173;-79
2022/11/19 11:47:21;;;;;;;2.37;2.17;;;;;;;;;;5081860;28;20179;-79
2022/11/19 11:49:48;;;;;;;2.70;2.33;;;;;;;;;;5086037;28;20201;-79
2022/11/19 11:52:19;;;;;;;2.70;2.33;;;;;;;;;;5103803;27;20241;-80
2022/11/19 11:54:54;;;;;;;2.50;2.30;;;;;;;;;;5089542;28;20182;-79
2022/11/19 11:57:21;;;;;;;3.60;3.23;;;;;;;;;;5085983;28;20232;-79
2022/11/19 11:59:46;;;;;;;3.80;2.90;;;;;;;;;;5086104;28;20183;-79
2022/11/19 12:02:21;;;;;;;4.07;3.30;;;;;;;;;;5088514;28;20261;-79
2022/11/19 12:04:48;;;;;;;3.03;2.77;;;;;;;;;;5085674;28;20225;-79
2022/11/19 12:07:13;;;;;;;2.90;2.53;;;;;;;;;;5086247;28;20195;-79
2022/11/19 12:09:44;;;;;;;4.43;2.60;;;;;;;;;;5081245;28;20177;-80
2022/11/19 12:12:15;;;;;;;5.73;3.20;;;;;;;;;;5079559;28;20196;-79
2022/11/19 12:14:49;;;;;;;3.83;3.03;;;;;;;;;;5082791;28;20180;-79
2022/11/19 12:17:29;;;;;;;5.67;3.30;;;;;;;;;;5089847;28;20211;-79
2022/11/19 12:20:07;;;;;;;6.67;4.37;;;;;;;;;;5085327;28;20237;-79
2022/11/19 12:22:53;;;;;;;8.87;4.00;;;;;;;;;;5085473;28;20188;-79
2022/11/19 12:25:20;;;;;;;5.67;4.10;;;;;;;;;;5060861;28;20230;-79
2022/11/19 12:27:55;;;;;;;4.40;3.50;;;;;;;;;;5105032;27;20185;-79
2022/11/19 12:30:29;;;;;;;3.60;3.30;;;;;;;;;;5102361;28;20239;-79
2022/11/19 12:33:06;;;;;;;4.87;4.13;;;;;;;;;;5083579;28;20188;-79
2022/11/19 12:35:41;;;;;;;4.37;3.50;;;;;;;;;;5096188;28;20179;-79
2022/11/19 12:38:12;;;;;;;5.17;3.90;;;;;;;;;;5089424;28;20188;-80
2022/11/19 12:40:40;;;;;;;4.30;3.70;;;;;;;;;;5091451;27;20279;-79
2022/11/19 12:43:05;;;;;;;5.43;3.33;;;;;;;;;;5088289;28;20261;-79
2022/11/19 12:46:00;;;;;;;3.60;3.30;;;;;;;;;;5085576;28;20175;-79
2022/11/19 12:48:33;;;;;;;5.00;4.07;;;;;;;;;;5080845;27;20194;-79
2022/11/19 12:51:04;;;;;;;7.20;6.03;;;;;;;;;;5084738;28;20208;-79
2022/11/19 12:53:29;;;;;;;5.10;4.67;;;;;;;;;;5086407;28;20187;-79
2022/11/19 12:56:13;;;;;;;5.87;4.07;;;;;;;;;;5088035;28;20223;-79
2022/11/19 12:58:47;;;;;;;6.10;3.83;;;;;;;;;;5102283;28;20187;-79
2022/11/19 13:01:17;;;;;;;7.90;5.00;;;;;;;;;;5087746;28;20204;-79
2022/11/19 13:04:04;;;;;;;5.17;4.57;;;;;;;;;;5085654;28;20207;-79
2022/11/19 13:06:44;;;;;;;4.73;3.87;;;;;;;;;;5089887;28;20181;-79
2022/11/19 13:09:35;;;;;;;7.17;4.40;;;;;;;;;;5085721;28;20206;-79
2022/11/19 13:12:04;;;;;;;8.27;4.90;;;;;;;;;;5085668;28;20282;-79
2022/11/19 13:14:32;;;;;;;5.97;5.23;;;;;;;;;;5085898;28;20184;-79
2022/11/19 13:16:58;;;;;;;13.03;7.37;;;;;;;;;;5094498;28;20203;-79
2022/11/19 13:19:28;;;;;;;7.47;5.13;;;;;;;;;;5082778;28;20199;-80
2022/11/19 13:21:53;;;;;;;6.60;4.33;;;;;;;;;;5083693;28;20266;-79
2022/11/19 13:24:24;;;;;;;6.70;4.50;;;;;;;;;;5080692;28;20262;-79
2022/11/19 13:26:50;;;;;;;6.07;5.30;;;;;;;;;;5087571;28;20181;-79
2022/11/19 13:29:34;;;;;;;6.33;5.30;;;;;;;;;;5088581;28;20197;-79
2022/11/19 13:32:09;;;;;;;5.93;5.33;;;;;;;;;;5085686;28;20231;-79
2022/11/19 13:34:39;;;;;;;6.23;5.63;;;;;;;;;;5090543;28;20178;-79
2022/11/19 13:37:11;;;;;;;6.70;5.73;;;;;;;;;;5087674;28;20212;-80
2022/11/19 13:39:48;;;;;;;5.90;5.30;;;;;;;;;;5097113;28;20178;-79
2022/11/19 13:44:58;;;;;;;8.30;6.80;;;;;;;;;;5079791;28;20187;-79
2022/11/19 13:47:24;;;;;;;9.27;6.47;;;;;;;;;;5090641;28;20470;-80
2022/11/19 13:49:55;;;;;;;6.80;6.10;;;;;;;;;;5088363;28;20178;-79
2022/11/19 13:52:27;;;;;;;6.63;5.73;;;;;;;;;;5082023;28;20179;-80
2022/11/19 13:54:53;;;;;;;7.37;5.83;;;;;;;;;;5095660;28;20200;-79
2022/11/19 13:57:24;;;;;;;6.60;5.60;;;;;;;;;;5081872;28;20303;-79
2022/11/19 13:59:54;;;;;;;6.53;5.67;;;;;;;;;;5093459;28;20175;-79
2022/11/19 14:02:36;;;;;;;6.70;6.00;;;;;;;;;;5085003;28;20308;-79
2022/11/19 14:05:28;;;;;;;7.07;5.53;;;;;;;;;;5094459;28;20180;-79
2022/11/19 14:08:31;;;;;;;5.90;5.07;;;;;;;;;;5080258;28;20184;-79
2022/11/19 14:10:59;;;;;;;5.20;4.57;;;;;;;;;;5026150;28;20186;-79
2022/11/19 14:13:34;;;;;;;6.53;5.37;;;;;;;;;;5026239;28;20205;-79
2022/11/19 14:27:18;;;;;;;6.83;4.63;;;;;;;;;;5040263;28;20192;-79
2022/11/19 14:29:43;;;;;;;5.77;4.70;;;;;;;;;;5032124;28;20225;-79
2022/11/19 14:32:09;;;;;;;6.43;4.90;;;;;;;;;;5022369;28;20177;-79
2022/11/19 14:34:34;;;;;;;5.57;4.97;;;;;;;;;;5030765;28;20192;-79
2022/11/19 14:37:18;;;;;;;6.80;5.50;;;;;;;;;;5041883;28;20204;-79
2022/11/19 14:39:45;;;;;;;7.40;4.90;;;;;;;;;;5033177;28;20181;-78
2022/11/19 14:42:10;;;;;;;4.97;4.17;;;;;;;;;;5068461;28;20231;-77
2022/11/19 14:44:35;;;;;;;5.47;4.33;;;;;;;;;;5089600;28;20180;-79
2022/11/19 14:47:19;;;;;;;6.33;4.83;;;;;;;;;;5085482;28;20210;-79
2022/11/19 14:49:46;;;;;;;6.10;5.43;;;;;;;;;;5086648;28;20277;-78
2022/11/19 14:52:20;;;;;;;5.60;4.10;;;;;;;;;;5091637;28;20261;-79
2022/11/19 14:54:51;;;;;;;8.60;5.17;;;;;;;;;;5096579;28;20265;-79
2022/11/19 14:57:25;;;;;;;8.87;5.03;;;;;;;;;;5085337;28;20220;-78
2022/11/19 14:59:52;;;;;;;3.93;3.53;;;;;;;;;;5079310;28;20179;-79
2022/11/19 15:02:23;;;;;;;6.37;4.00;;;;;;;;;;5082997;28;20184;-79
2022/11/19 15:04:54;;;;;;;6.33;5.37;;;;;;;;;;5089393;28;20271;-79
2022/11/19 15:07:31;;;;;;;5.07;4.47;;;;;;;;;;5087949;28;20182;-79
2022/11/19 15:10:04;;;;;;;9.00;5.30;;;;;;;;;;5103414;27;20226;-79
2022/11/19 15:12:41;;;;;;;6.20;4.90;;;;;;;;;;5090192;28;20185;-79
2022/11/19 15:15:19;;;;;;;4.67;4.23;;;;;;;;;;5105129;27;20186;-79
2022/11/19 15:17:52;;;;;;;7.57;4.97;;;;;;;;;;5084040;28;20201;-79
2022/11/19 15:20:45;;;;;;;5.70;5.10;;;;;;;;;;5093635;28;20195;-79
2022/11/19 15:23:27;;;;;;;9.83;5.20;;;;;;;;;;5091956;28;20193;-79